Time;durP1;ratioP1;P1;durP2;ratioP2;P2;SDS_P1;SDS_P2;PMS_P1;PMS_P2;Temp;Humidity;BMP_temperature;BMP_pressure;BME280_temperature;BME280_humidity;BME280_pressure;Samples;Min_cycle;Max_cycle;Signal;HPM_P1;HPM_P2
2021/09/13 00:02:18;;;;;;;7.30;6.60;;;19.00;99.90;;;;;;6159524;23;20442;-85
2021/09/13 00:04:47;;;;;;;7.13;6.43;;;18.90;99.90;;;;;;6158053;23;20402;-84
2021/09/13 00:07:14;;;;;;;7.67;5.40;;;18.90;99.90;;;;;;6185618;23;20423;-83
2021/09/13 00:09:41;;;;;;;7.17;6.47;;;18.90;99.90;;;;;;6185865;23;20513;-84
2021/09/13 00:12:09;;;;;;;8.00;6.43;;;18.80;99.90;;;;;;6158255;23;20410;-86
2021/09/13 00:14:36;;;;;;;5.83;5.23;;;18.80;99.90;;;;;;6158686;23;20412;-83
2021/09/13 00:17:03;;;;;;;9.20;6.13;;;18.70;99.90;;;;;;6159948;23;20930;-84
2021/09/13 00:19:32;;;;;;;7.00;6.00;;;18.60;99.90;;;;;;6161046;23;20409;-86
2021/09/13 00:21:59;;;;;;;6.07;5.40;;;18.50;99.90;;;;;;6158839;23;20509;-86
2021/09/13 00:24:26;;;;;;;7.37;6.00;;;18.60;99.90;;;;;;6159968;23;20410;-84
2021/09/13 00:26:52;;;;;;;6.60;6.00;;;18.70;99.90;;;;;;6159936;23;20426;-84
2021/09/13 00:29:21;;;;;;;6.70;5.97;;;18.70;99.90;;;;;;6159456;23;20472;-84
2021/09/13 00:31:48;;;;;;;8.07;6.10;;;18.80;99.90;;;;;;6183353;23;20414;-86
2021/09/13 00:34:14;;;;;;;6.60;5.70;;;18.80;99.90;;;;;;6156963;23;20505;-84
2021/09/13 00:36:41;;;;;;;6.07;5.30;;;18.70;99.90;;;;;;6156175;23;20438;-84
2021/09/13 00:39:08;;;;;;;5.90;5.30;;;18.60;99.90;;;;;;6153456;23;20897;-84
2021/09/13 00:41:34;;;;;;;7.93;6.00;;;18.60;99.90;;;;;;6153393;23;21080;-84
2021/09/13 00:44:02;;;;;;;6.37;5.73;;;18.60;99.90;;;;;;6179837;23;20796;-85
2021/09/13 00:46:28;;;;;;;6.13;5.60;;;18.50;99.90;;;;;;6153250;23;20533;-85
2021/09/13 00:48:55;;;;;;;7.20;5.87;;;18.50;99.90;;;;;;6153777;23;20406;-85
2021/09/13 00:51:22;;;;;;;6.17;5.40;;;18.50;99.90;;;;;;6180730;23;20743;-85
2021/09/13 00:53:49;;;;;;;10.43;6.37;;;18.60;99.90;;;;;;6179748;23;20493;-85
2021/09/13 00:56:16;;;;;;;7.50;5.60;;;18.70;99.90;;;;;;6180784;23;20444;-81
2021/09/13 00:58:44;;;;;;;6.90;6.27;;;18.50;99.90;;;;;;6181480;23;20426;-85
2021/09/13 01:01:11;;;;;;;10.07;6.50;;;18.60;99.90;;;;;;6181250;23;20487;-84
2021/09/13 01:03:38;;;;;;;7.80;6.87;;;18.40;99.90;;;;;;6179568;23;20710;-86
2021/09/13 01:06:05;;;;;;;8.13;6.90;;;18.40;99.90;;;;;;6153060;23;20437;-86
2021/09/13 01:08:32;;;;;;;6.23;5.67;;;18.20;99.90;;;;;;6152872;23;20410;-84
2021/09/13 01:10:59;;;;;;;9.30;6.20;;;18.10;99.90;;;;;;6152338;23;20422;-85
2021/09/13 01:13:26;;;;;;;6.73;6.13;;;18.00;99.90;;;;;;6152362;23;20468;-85
2021/09/13 01:15:53;;;;;;;9.63;5.97;;;18.00;99.90;;;;;;6154986;23;20519;-86
2021/09/13 01:18:20;;;;;;;6.17;5.57;;;17.90;99.90;;;;;;6181878;23;20413;-86
2021/09/13 01:20:47;;;;;;;8.00;7.30;;;18.10;99.90;;;;;;6186793;23;20467;-85
2021/09/13 01:23:27;;;;;;;6.63;5.53;;;18.20;99.90;;;;;;6159261;23;20453;-85
2021/09/13 01:25:54;;;;;;;6.03;5.43;;;18.10;99.90;;;;;;6183772;23;20521;-85
2021/09/13 01:28:20;;;;;;;5.90;5.50;;;18.00;99.90;;;;;;6152294;23;20411;-84
2021/09/13 01:30:47;;;;;;;7.63;5.77;;;18.20;99.90;;;;;;6184704;23;20527;-85
2021/09/13 01:33:14;;;;;;;6.87;6.23;;;18.20;99.90;;;;;;6157239;23;20414;-87
2021/09/13 01:35:40;;;;;;;6.17;5.57;;;18.20;99.90;;;;;;6180053;23;20430;-87
2021/09/13 01:38:07;;;;;;;7.50;6.13;;;18.00;99.90;;;;;;6153404;23;20414;-84
2021/09/13 01:40:34;;;;;;;7.40;6.03;;;18.00;99.90;;;;;;6178698;23;20484;-86
2021/09/13 01:43:02;;;;;;;6.63;6.00;;;17.80;99.90;;;;;;6152025;23;20440;-87
2021/09/13 01:45:29;;;;;;;6.60;6.07;;;17.80;99.90;;;;;;6179019;23;20449;-85
2021/09/13 01:47:56;;;;;;;6.60;6.10;;;17.80;99.90;;;;;;6153315;23;20478;-85
2021/09/13 01:50:23;;;;;;;10.00;6.37;;;17.90;99.90;;;;;;6152781;23;20406;-84
2021/09/13 01:52:50;;;;;;;7.30;6.70;;;17.80;99.90;;;;;;6153278;23;20429;-84
2021/09/13 01:55:16;;;;;;;7.10;6.50;;;17.70;99.90;;;;;;6152470;23;20488;-85
2021/09/13 01:57:43;;;;;;;7.47;6.77;;;17.50;99.90;;;;;;6153512;23;20414;-84
2021/09/13 02:00:10;;;;;;;7.73;6.50;;;17.50;99.90;;;;;;6178692;23;20425;-86
2021/09/13 02:02:37;;;;;;;7.10;6.40;;;17.40;99.90;;;;;;6151571;23;20449;-85
2021/09/13 02:05:04;;;;;;;7.07;6.37;;;17.30;99.90;;;;;;6151799;23;21024;-85
2021/09/13 02:07:31;;;;;;;7.77;7.10;;;17.30;99.90;;;;;;6152952;23;20410;-87
2021/09/13 02:09:57;;;;;;;8.17;6.60;;;17.40;99.90;;;;;;6178789;23;20402;-85
2021/09/13 02:12:25;;;;;;;7.00;6.40;;;17.40;99.90;;;;;;6154325;23;20410;-84
2021/09/13 02:14:51;;;;;;;6.63;6.13;;;17.40;99.90;;;;;;6152991;23;20967;-86
2021/09/13 02:17:18;;;;;;;6.33;5.73;;;17.30;99.90;;;;;;6179318;23;20418;-86
2021/09/13 02:19:46;;;;;;;6.47;5.97;;;17.40;99.90;;;;;;6152942;23;20410;-85
2021/09/13 02:22:13;;;;;;;7.33;6.63;;;17.50;99.90;;;;;;6177773;23;20536;-85
2021/09/13 02:24:40;;;;;;;7.53;6.77;;;17.40;99.90;;;;;;6151463;23;20410;-85
2021/09/13 02:27:06;;;;;;;7.00;5.97;;;17.40;99.90;;;;;;6177200;23;20430;-85
2021/09/13 02:29:33;;;;;;;6.50;6.00;;;17.20;99.90;;;;;;6175161;23;20421;-86
2021/09/13 02:32:01;;;;;;;6.53;5.87;;;17.20;99.90;;;;;;6163443;23;20418;-85
2021/09/13 02:34:28;;;;;;;8.87;5.93;;;17.10;99.90;;;;;;6194386;23;20406;-84
2021/09/13 02:36:55;;;;;;;6.70;5.40;;;17.00;99.90;;;;;;6154887;23;20968;-86
2021/09/13 02:39:22;;;;;;;9.50;5.93;;;17.20;99.90;;;;;;6151594;23;20424;-85
2021/09/13 02:41:49;;;;;;;8.53;6.30;;;17.50;99.90;;;;;;6180155;23;20452;-86
2021/09/13 02:44:15;;;;;;;7.47;6.77;;;17.40;99.90;;;;;;6152022;23;20418;-86
2021/09/13 02:46:42;;;;;;;7.67;6.70;;;17.40;99.90;;;;;;6179368;23;20971;-85
2021/09/13 02:49:09;;;;;;;7.83;5.93;;;17.40;99.90;;;;;;6153014;23;20421;-85
2021/09/13 02:51:35;;;;;;;7.67;6.87;;;17.20;99.90;;;;;;6153700;23;20414;-86
2021/09/13 02:54:02;;;;;;;8.00;6.93;;;17.10;99.90;;;;;;6153076;23;20928;-85
2021/09/13 02:56:29;;;;;;;7.10;6.13;;;17.10;99.90;;;;;;6153784;23;20434;-85
2021/09/13 02:58:55;;;;;;;7.37;6.20;;;17.10;99.90;;;;;;6152682;23;20428;-85
2021/09/13 03:01:22;;;;;;;11.00;6.90;;;17.10;99.90;;;;;;6153524;23;21349;-85
2021/09/13 03:03:49;;;;;;;7.27;6.10;;;17.10;99.90;;;;;;6154285;23;20746;-85
2021/09/13 03:06:16;;;;;;;10.03;7.97;;;17.10;99.90;;;;;;6154004;23;21292;-85
2021/09/13 03:08:42;;;;;;;10.33;7.10;;;17.20;99.90;;;;;;6154531;23;20406;-86
2021/09/13 03:11:10;;;;;;;7.77;6.97;;;17.20;99.90;;;;;;6180891;23;20421;-85
2021/09/13 03:13:36;;;;;;;6.80;6.17;;;17.10;99.90;;;;;;6160684;23;20405;-88
2021/09/13 03:16:03;;;;;;;7.03;6.33;;;17.10;99.90;;;;;;6202674;23;20501;-87
2021/09/13 03:18:30;;;;;;;7.80;6.90;;;17.10;99.90;;;;;;6200031;23;20405;-86
2021/09/13 03:20:57;;;;;;;8.47;6.80;;;17.20;99.90;;;;;;6199983;23;20480;-86
2021/09/13 03:23:23;;;;;;;12.90;9.37;;;17.00;99.90;;;;;;6193127;23;20780;-84
2021/09/13 03:25:50;;;;;;;12.13;7.90;;;16.80;99.90;;;;;;6174399;23;20437;-85
2021/09/13 03:28:17;;;;;;;11.57;7.60;;;16.70;99.90;;;;;;6178927;23;20421;-85
2021/09/13 03:30:43;;;;;;;15.83;13.70;;;16.80;99.90;;;;;;6151688;23;20405;-85
2021/09/13 03:33:10;;;;;;;13.30;8.47;;;16.90;99.90;;;;;;6152283;23;20418;-84
2021/09/13 03:35:37;;;;;;;17.63;8.97;;;17.10;99.90;;;;;;6172873;23;20433;-88
2021/09/13 03:38:03;;;;;;;12.57;8.20;;;17.00;99.90;;;;;;6205853;23;20481;-88
2021/09/13 03:40:30;;;;;;;23.60;9.87;;;16.90;99.90;;;;;;6205780;23;20497;-87
2021/09/13 03:42:56;;;;;;;17.20;8.20;;;16.80;99.90;;;;;;6205404;23;20509;-87
2021/09/13 03:45:23;;;;;;;9.10;7.30;;;16.60;99.90;;;;;;6199820;23;20437;-85
2021/09/13 03:47:50;;;;;;;9.43;6.93;;;16.50;99.90;;;;;;6182128;23;20418;-85
2021/09/13 03:50:17;;;;;;;7.97;7.20;;;16.60;99.90;;;;;;6176539;23;20406;-86
2021/09/13 03:52:44;;;;;;;7.33;6.67;;;16.40;99.90;;;;;;6184880;23;20413;-86
2021/09/13 03:55:11;;;;;;;8.23;6.53;;;16.30;99.90;;;;;;6151724;23;20422;-84
2021/09/13 03:57:37;;;;;;;8.50;6.50;;;16.40;99.90;;;;;;6151676;23;20902;-85
2021/09/13 04:00:05;;;;;;;7.90;7.13;;;16.40;99.90;;;;;;6150153;23;20432;-88
2021/09/13 04:02:31;;;;;;;8.77;6.97;;;16.50;99.90;;;;;;6177651;23;20429;-87
2021/09/13 04:04:58;;;;;;;7.73;6.90;;;16.70;99.90;;;;;;6152047;23;20437;-84
2021/09/13 04:07:33;;;;;;;8.87;7.30;;;16.70;99.90;;;;;;6178291;23;20436;-85
2021/09/13 04:10:15;;;;;;;7.40;6.70;;;16.50;99.90;;;;;;6177760;23;20409;-85
2021/09/13 04:12:41;;;;;;;7.50;6.87;;;16.50;99.90;;;;;;6177618;23;20414;-85
2021/09/13 04:15:09;;;;;;;8.37;7.40;;;16.50;99.90;;;;;;6177303;23;20436;-84
2021/09/13 04:17:35;;;;;;;9.80;7.50;;;16.40;99.90;;;;;;6177485;23;20515;-84
2021/09/13 04:20:03;;;;;;;8.80;7.90;;;16.20;99.90;;;;;;6151965;23;20410;-85
2021/09/13 04:22:29;;;;;;;9.03;7.43;;;16.10;99.90;;;;;;6178415;23;20450;-85
2021/09/13 04:24:57;;;;;;;7.77;7.00;;;16.10;99.90;;;;;;6151544;23;20433;-86
2021/09/13 04:27:23;;;;;;;9.77;7.63;;;16.20;99.90;;;;;;6151842;23;20538;-85
2021/09/13 04:29:50;;;;;;;7.70;7.00;;;16.10;99.90;;;;;;6150725;23;20465;-85
2021/09/13 04:32:17;;;;;;;8.90;8.00;;;16.20;99.90;;;;;;6177620;23;20418;-85
2021/09/13 04:34:43;;;;;;;11.00;8.17;;;16.20;99.90;;;;;;6149842;23;20472;-85
2021/09/13 04:37:10;;;;;;;8.13;7.30;;;16.00;99.90;;;;;;6151524;23;20466;-85
2021/09/13 04:39:37;;;;;;;9.43;7.50;;;16.00;99.90;;;;;;6154022;23;20414;-87
2021/09/13 04:42:04;;;;;;;10.20;8.10;;;16.00;99.90;;;;;;6152949;23;21312;-85
2021/09/13 04:44:30;;;;;;;8.10;6.60;;;16.00;99.90;;;;;;6152701;23;20414;-86
2021/09/13 04:46:57;;;;;;;8.93;7.63;;;15.90;99.90;;;;;;6153129;23;20429;-84
2021/09/13 04:49:24;;;;;;;10.07;7.03;;;15.90;99.90;;;;;;6152467;23;20410;-84
2021/09/13 04:51:52;;;;;;;12.37;7.67;;;15.80;99.90;;;;;;6152245;23;20406;-86
2021/09/13 04:54:19;;;;;;;9.67;8.10;;;15.80;99.90;;;;;;6151174;23;20413;-87
2021/09/13 04:56:45;;;;;;;11.90;7.90;;;15.80;99.90;;;;;;6154373;23;20461;-86
2021/09/13 04:59:12;;;;;;;13.30;7.30;;;15.90;99.90;;;;;;6152864;23;20428;-86
2021/09/13 05:01:39;;;;;;;13.07;8.10;;;16.10;99.90;;;;;;6152329;23;20441;-87
2021/09/13 05:04:09;;;;;;;9.77;8.23;;;16.10;99.90;;;;;;6154118;23;20453;-89
2021/09/13 05:06:39;;;;;;;8.27;7.00;;;16.00;99.90;;;;;;6153472;23;20445;-86
2021/09/13 05:09:06;;;;;;;9.60;7.40;;;16.20;99.90;;;;;;6180059;23;20422;-88
2021/09/13 05:11:33;;;;;;;10.33;7.30;;;16.30;99.90;;;;;;6154262;23;20869;-87
2021/09/13 05:14:00;;;;;;;8.53;7.60;;;16.30;99.90;;;;;;6153112;23;20517;-84
2021/09/13 05:16:26;;;;;;;12.50;8.77;;;16.30;99.90;;;;;;6181013;23;20441;-87
2021/09/13 05:18:53;;;;;;;9.20;7.80;;;16.30;99.90;;;;;;6157054;23;20932;-85
2021/09/13 05:21:20;;;;;;;8.10;7.40;;;16.20;99.90;;;;;;6162403;23;20565;-86
2021/09/13 05:23:46;;;;;;;9.57;7.77;;;16.10;99.90;;;;;;6163747;23;20446;-87
2021/09/13 05:26:13;;;;;;;9.83;7.47;;;16.20;99.90;;;;;;6187787;23;20436;-87
2021/09/13 05:28:40;;;;;;;7.97;7.27;;;16.00;99.90;;;;;;6187380;23;20478;-86
2021/09/13 05:31:09;;;;;;;9.40;7.60;;;16.00;99.90;;;;;;6157173;23;20378;-85
2021/09/13 05:33:35;;;;;;;10.20;7.07;;;16.10;99.90;;;;;;6155848;23;20476;-87
2021/09/13 05:36:03;;;;;;;8.40;7.43;;;16.00;99.90;;;;;;6156607;23;20452;-85
2021/09/13 05:38:32;;;;;;;11.47;8.53;;;16.20;99.90;;;;;;6191758;23;20462;-86
2021/09/13 05:40:59;;;;;;;9.40;8.43;;;16.10;99.90;;;;;;6164883;23;20492;-83
2021/09/13 05:43:26;;;;;;;10.23;8.23;;;16.20;99.90;;;;;;6180147;23;20446;-85
2021/09/13 05:45:54;;;;;;;9.83;8.07;;;16.20;99.90;;;;;;6155003;23;20425;-85
2021/09/13 05:48:21;;;;;;;7.80;7.10;;;16.20;99.90;;;;;;6181749;23;20951;-86
2021/09/13 05:50:48;;;;;;;12.43;7.80;;;16.20;99.90;;;;;;6153613;23;20449;-87
2021/09/13 05:53:17;;;;;;;8.60;7.73;;;16.40;99.90;;;;;;6153694;23;20418;-87
2021/09/13 05:55:44;;;;;;;9.97;7.90;;;16.40;99.90;;;;;;6160728;23;20422;-85
2021/09/13 05:58:13;;;;;;;12.93;8.73;;;16.50;99.90;;;;;;6188440;23;20434;-86
2021/09/13 06:00:40;;;;;;;8.83;7.33;;;16.70;99.90;;;;;;6190879;23;20496;-89
2021/09/13 06:03:08;;;;;;;8.90;7.73;;;16.60;99.90;;;;;;6182349;23;20445;-88
2021/09/13 06:05:36;;;;;;;7.40;6.63;;;16.50;99.90;;;;;;6182949;23;20492;-89
2021/09/13 06:08:03;;;;;;;11.43;8.63;;;16.70;99.90;;;;;;6154239;23;20420;-86
2021/09/13 06:10:30;;;;;;;10.20;8.40;;;16.70;99.90;;;;;;6180884;23;20414;-87
2021/09/13 06:12:57;;;;;;;8.60;7.73;;;16.50;99.90;;;;;;6153979;23;20725;-87
2021/09/13 06:15:24;;;;;;;9.90;8.17;;;16.50;99.90;;;;;;6154637;23;20520;-86
2021/09/13 06:17:51;;;;;;;14.57;8.10;;;16.40;99.90;;;;;;6154211;23;20999;-85
2021/09/13 06:20:20;;;;;;;18.30;10.00;;;16.20;99.90;;;;;;6153139;23;20487;-87
2021/09/13 06:22:47;;;;;;;10.07;8.70;;;16.20;99.90;;;;;;6180105;23;20533;-88
2021/09/13 06:25:13;;;;;;;10.83;8.90;;;16.20;99.90;;;;;;6180885;23;21134;-87
2021/09/13 06:27:40;;;;;;;12.70;9.30;;;16.20;99.90;;;;;;6154952;23;20417;-87
2021/09/13 06:30:07;;;;;;;11.60;9.00;;;16.30;99.90;;;;;;6153986;23;20501;-85
2021/09/13 06:32:34;;;;;;;12.80;9.53;;;16.50;99.90;;;;;;6154918;23;20501;-84
2021/09/13 06:35:04;;;;;;;12.57;9.83;;;16.70;99.90;;;;;;6179471;23;20476;-86
2021/09/13 06:37:32;;;;;;;14.20;10.80;;;17.10;99.90;;;;;;6154973;23;20428;-87
2021/09/13 06:39:58;;;;;;;14.43;10.20;;;17.30;99.90;;;;;;6157119;23;20402;-87
2021/09/13 06:42:30;;;;;;;14.83;11.87;;;17.80;99.90;;;;;;6181886;23;20402;-85
2021/09/13 06:44:58;;;;;;;15.47;11.40;;;17.90;99.90;;;;;;6156897;23;20440;-90
2021/09/13 06:49:58;;;;;;;17.77;11.10;;;18.40;99.90;;;;;;6187321;23;20453;-85
2021/09/13 06:52:25;;;;;;;15.30;10.73;;;18.00;99.90;;;;;;6134260;23;20410;-85
2021/09/13 06:54:52;;;;;;;16.63;12.77;;;18.00;99.90;;;;;;6152871;23;20420;-86
2021/09/13 06:57:19;;;;;;;15.60;13.23;;;18.50;99.90;;;;;;6173883;23;20405;-86
2021/09/13 06:59:46;;;;;;;19.10;13.20;;;18.80;99.90;;;;;;6159681;23;20420;-86
2021/09/13 07:02:13;;;;;;;15.67;11.90;;;18.80;99.90;;;;;;6160135;23;20508;-83
2021/09/13 07:04:41;;;;;;;16.80;13.07;;;18.30;99.90;;;;;;6159721;23;20520;-85
2021/09/13 07:07:07;;;;;;;19.40;13.70;;;18.00;99.90;;;;;;6158816;23;20501;-85
2021/09/13 07:09:34;;;;;;;16.20;13.67;;;17.70;99.90;;;;;;6157855;23;20414;-87
2021/09/13 07:12:03;;;;;;;16.97;13.83;;;17.50;99.90;;;;;;6160065;23;20410;-88
2021/09/13 07:14:30;;;;;;;20.20;14.57;;;17.90;99.90;;;;;;6182741;23;20410;-86
2021/09/13 07:16:57;;;;;;;22.87;15.40;;;18.10;99.90;;;;;;6183969;23;20541;-86
2021/09/13 07:19:24;;;;;;;20.37;16.40;;;18.40;99.90;;;;;;6185267;23;20766;-86
2021/09/13 07:21:50;;;;;;;25.87;17.73;;;18.50;99.90;;;;;;6157012;23;20425;-86
2021/09/13 07:24:20;;;;;;;26.20;19.20;;;18.20;99.90;;;;;;6157395;23;20471;-85
2021/09/13 07:26:48;;;;;;;23.27;18.70;;;18.10;99.90;;;;;;6183098;23;20429;-86
2021/09/13 07:29:15;;;;;;;26.23;19.20;;;17.60;99.90;;;;;;6156551;23;20509;-87
2021/09/13 07:31:42;;;;;;;21.10;18.90;;;17.60;99.90;;;;;;6158673;23;20411;-84
2021/09/13 07:34:09;;;;;;;29.43;18.77;;;17.60;99.90;;;;;;6155643;23;20429;-86
2021/09/13 07:36:36;;;;;;;23.20;19.00;;;17.50;99.90;;;;;;6154778;23;20438;-88
2021/09/13 07:39:05;;;;;;;20.10;17.73;;;17.20;99.90;;;;;;6152879;23;20532;-85
2021/09/13 07:41:32;;;;;;;20.20;17.47;;;17.50;99.90;;;;;;6156766;23;20418;-87
2021/09/13 07:43:58;;;;;;;19.80;17.63;;;18.10;99.90;;;;;;6154298;23;20449;-85
2021/09/13 07:46:25;;;;;;;20.53;18.23;;;18.40;99.90;;;;;;6155669;23;20432;-86
2021/09/13 07:48:52;;;;;;;23.40;19.50;;;18.60;99.90;;;;;;6155103;23;20493;-86
2021/09/13 07:51:21;;;;;;;21.27;18.50;;;18.90;99.90;;;;;;6157485;23;20445;-86
2021/09/13 07:53:48;;;;;;;24.00;20.60;;;19.20;99.90;;;;;;6156742;23;20390;-84
2021/09/13 07:56:15;;;;;;;22.47;18.60;;;19.80;99.90;;;;;;6157912;23;20806;-83
2021/09/13 07:58:41;;;;;;;19.20;16.40;;;21.10;98.20;;;;;;6180124;23;20465;-86
2021/09/13 08:01:09;;;;;;;17.43;14.60;;;21.30;96.70;;;;;;6155367;23;20983;-84
2021/09/13 08:03:36;;;;;;;16.20;13.60;;;22.00;95.50;;;;;;6152294;23;20438;-86
2021/09/13 08:06:03;;;;;;;16.30;14.67;;;22.90;94.00;;;;;;6152537;23;20437;-84
2021/09/13 08:08:30;;;;;;;18.50;15.50;;;23.10;92.70;;;;;;6177120;23;20489;-83
2021/09/13 08:10:57;;;;;;;17.27;15.47;;;23.40;91.70;;;;;;6153289;23;20406;-84
2021/09/13 08:13:24;;;;;;;20.03;16.80;;;23.50;91.40;;;;;;6151693;23;20414;-86
2021/09/13 08:15:50;;;;;;;19.73;17.60;;;22.80;91.90;;;;;;6151621;23;20537;-85
2021/09/13 08:18:17;;;;;;;22.47;20.27;;;22.60;93.00;;;;;;6171196;23;20952;-83
2021/09/13 08:20:44;;;;;;;24.47;21.27;;;22.80;92.50;;;;;;6168823;23;20414;-87
2021/09/13 08:23:11;;;;;;;25.00;21.70;;;22.90;92.40;;;;;;6191622;23;20537;-85
2021/09/13 08:25:37;;;;;;;26.73;23.23;;;22.80;92.50;;;;;;6183854;23;20452;-85
2021/09/13 08:28:05;;;;;;;24.70;21.63;;;22.90;92.30;;;;;;6181013;23;20485;-85
2021/09/13 08:30:31;;;;;;;27.73;21.90;;;22.30;92.80;;;;;;6182431;23;20410;-86
2021/09/13 08:32:59;;;;;;;23.50;18.93;;;21.40;94.00;;;;;;6156669;23;20445;-85
2021/09/13 08:35:26;;;;;;;27.70;19.93;;;20.90;95.70;;;;;;6154827;23;20426;-84
2021/09/13 08:37:52;;;;;;;29.77;19.23;;;20.50;96.70;;;;;;6185820;23;20413;-84
2021/09/13 08:40:19;;;;;;;22.20;18.93;;;20.50;97.10;;;;;;6156323;23;20849;-85
2021/09/13 08:42:49;;;;;;;28.63;20.87;;;20.50;97.30;;;;;;6191677;23;20414;-88
2021/09/13 08:48:10;;;;;;;29.07;24.33;;;20.50;97.60;;;;;;6185309;23;20415;-85
2021/09/13 08:53:22;;;;;;;37.70;26.20;;;20.50;97.70;;;;;;6183372;23;20454;-84
2021/09/13 08:55:52;;;;;;;34.47;25.80;;;20.50;97.80;;;;;;6169364;23;20437;-88
2021/09/13 08:58:22;;;;;;;33.90;26.07;;;20.30;98.10;;;;;;6185455;23;20500;-85
2021/09/13 09:00:51;;;;;;;31.20;25.47;;;20.20;98.20;;;;;;6175990;23;20727;-86
2021/09/13 09:03:18;;;;;;;34.53;27.17;;;20.10;98.50;;;;;;6176323;23;20907;-84
2021/09/13 09:05:51;;;;;;;35.67;27.30;;;20.00;98.90;;;;;;6179181;23;20422;-86
2021/09/13 09:08:29;;;;;;;34.80;26.80;;;20.00;98.90;;;;;;6179037;23;20403;-85
2021/09/13 09:11:02;;;;;;;33.70;27.10;;;19.90;99.70;;;;;;6178227;23;20896;-84
2021/09/13 09:13:43;;;;;;;32.20;28.70;;;19.80;99.40;;;;;;6177664;23;20505;-86
2021/09/13 09:16:16;;;;;;;34.43;27.30;;;19.80;99.80;;;;;;6152821;23;20512;-88
2021/09/13 09:18:44;;;;;;;37.83;30.20;;;20.00;99.60;;;;;;6152002;23;20442;-84
2021/09/13 09:21:25;;;;;;;37.10;27.83;;;19.90;99.40;;;;;;6177013;23;20418;-85
2021/09/13 09:23:55;;;;;;;35.40;27.13;;;19.90;99.50;;;;;;6151663;23;20445;-86
2021/09/13 09:26:23;;;;;;;33.70;25.30;;;20.00;99.60;;;;;;6152406;23;20476;-85
2021/09/13 09:28:50;;;;;;;30.70;24.53;;;20.00;99.20;;;;;;6178263;23;20429;-86
2021/09/13 09:31:40;;;;;;;33.30;28.17;;;20.10;99.20;;;;;;6153648;23;20414;-88
2021/09/13 09:34:16;;;;;;;34.47;27.63;;;20.30;98.80;;;;;;6152314;23;20379;-88
2021/09/13 09:36:59;;;;;;;31.80;26.67;;;20.50;98.80;;;;;;6152202;23;20435;-87
2021/09/13 09:39:50;;;;;;;32.50;25.77;;;20.70;98.00;;;;;;6152480;23;20474;-86
2021/09/13 09:42:33;;;;;;;31.00;27.40;;;21.20;97.90;;;;;;6153370;23;20414;-86
2021/09/13 09:48:13;;;;;;;35.00;26.07;;;22.50;94.50;;;;;;6171584;23;20487;-88
2021/09/13 09:50:41;;;;;;;29.17;22.27;;;22.60;94.50;;;;;;6172357;23;20421;-91
2021/09/13 09:53:21;;;;;;;25.60;22.83;;;23.20;93.20;;;;;;6173235;23;20426;-88
2021/09/13 09:55:54;;;;;;;27.73;22.37;;;23.70;92.10;;;;;;6164934;23;20430;-88
2021/09/13 09:58:24;;;;;;;26.40;22.90;;;24.80;91.20;;;;;;6183986;23;20420;-86
2021/09/13 10:04:54;;;;;;;24.03;20.77;;;25.10;87.70;;;;;;6154079;23;20556;-87
2021/09/13 10:07:22;;;;;;;26.20;20.50;;;24.90;87.60;;;;;;6178935;23;20444;-85
2021/09/13 10:09:56;;;;;;;24.63;22.10;;;25.30;87.00;;;;;;6178327;23;20406;-87
2021/09/13 10:12:26;;;;;;;24.03;20.97;;;25.60;85.50;;;;;;6179489;23;21205;-84
2021/09/13 10:14:54;;;;;;;30.40;23.10;;;26.00;84.90;;;;;;6180214;23;20540;-84
2021/09/13 10:17:22;;;;;;;23.60;21.30;;;26.10;84.00;;;;;;6178099;23;20417;-84
2021/09/13 10:19:50;;;;;;;23.53;21.07;;;26.30;82.00;;;;;;6177304;23;20928;-84
2021/09/13 10:22:20;;;;;;;25.27;20.80;;;26.40;81.80;;;;;;6180437;23;20483;-84
2021/09/13 10:24:51;;;;;;;25.13;21.93;;;26.00;82.10;;;;;;6178902;23;20555;-84
2021/09/13 10:27:20;;;;;;;21.40;19.17;;;26.10;82.20;;;;;;6179166;23;20410;-84
2021/09/13 10:30:09;;;;;;;24.47;20.07;;;26.00;81.40;;;;;;6176605;23;20418;-87
2021/09/13 10:32:42;;;;;;;27.00;21.80;;;25.40;83.10;;;;;;6177016;23;20545;-86
2021/09/13 10:35:16;;;;;;;21.83;19.57;;;24.90;85.60;;;;;;6176587;23;20437;-85
2021/09/13 10:37:50;;;;;;;24.17;20.40;;;24.70;87.40;;;;;;6176905;23;20402;-86
2021/09/13 10:40:39;;;;;;;23.47;20.13;;;25.40;85.10;;;;;;6174786;23;20449;-86
2021/09/13 10:43:20;;;;;;;22.07;19.70;;;25.20;85.20;;;;;;6177372;23;20409;-87
2021/09/13 10:45:47;;;;;;;22.00;18.60;;;25.20;84.00;;;;;;6184084;23;20437;-90
2021/09/13 10:48:23;;;;;;;20.47;18.33;;;24.90;85.40;;;;;;6189081;23;20410;-84
2021/09/13 10:50:53;;;;;;;20.30;18.20;;;25.70;83.10;;;;;;6188946;23;20387;-87
2021/09/13 10:53:20;;;;;;;20.30;17.93;;;25.50;82.60;;;;;;6180978;23;20409;-84
2021/09/13 10:55:55;;;;;;;23.33;20.70;;;25.10;83.50;;;;;;6176493;23;20473;-85
2021/09/13 10:58:43;;;;;;;20.13;17.70;;;25.20;83.90;;;;;;6178483;23;20390;-87
2021/09/13 11:01:30;;;;;;;21.00;18.80;;;25.30;82.90;;;;;;6174903;23;20406;-85
2021/09/13 11:04:12;;;;;;;23.23;18.73;;;25.00;84.60;;;;;;6175627;23;20429;-85
2021/09/13 11:06:46;;;;;;;21.00;18.80;;;25.20;83.40;;;;;;6178161;23;20464;-87
2021/09/13 11:09:20;;;;;;;20.60;16.73;;;25.10;84.40;;;;;;6176274;23;20620;-84
2021/09/13 11:11:57;;;;;;;18.50;16.77;;;24.90;82.80;;;;;;6195239;23;20422;-86
2021/09/13 11:14:26;;;;;;;16.63;14.93;;;25.40;80.30;;;;;;6198982;23;20441;-88
2021/09/13 11:16:58;;;;;;;17.63;15.87;;;25.30;79.70;;;;;;6179237;23;20429;-83
2021/09/13 11:19:27;;;;;;;18.57;16.33;;;25.10;81.50;;;;;;6178216;23;20425;-86
2021/09/13 11:22:02;;;;;;;19.10;17.20;;;26.00;79.90;;;;;;6177426;23;20521;-85
2021/09/13 11:24:37;;;;;;;19.60;16.90;;;26.10;80.00;;;;;;6176083;23;20426;-86
2021/09/13 11:27:10;;;;;;;20.87;16.90;;;26.40;80.00;;;;;;6177445;23;20857;-85
2021/09/13 11:29:46;;;;;;;18.33;16.50;;;26.40;78.50;;;;;;6182147;23;20402;-88
2021/09/13 11:32:16;;;;;;;16.63;15.13;;;26.30;77.60;;;;;;6181356;23;20470;-84
2021/09/13 11:34:46;;;;;;;16.57;14.97;;;26.40;76.80;;;;;;6180175;23;20441;-85
2021/09/13 11:37:26;;;;;;;16.77;14.97;;;26.40;77.40;;;;;;6177015;23;20415;-86
2021/09/13 11:40:14;;;;;;;17.43;13.93;;;26.40;77.10;;;;;;6176639;23;20406;-86
2021/09/13 11:42:40;;;;;;;15.83;14.23;;;26.20;76.60;;;;;;6181848;23;20398;-84
2021/09/13 11:45:12;;;;;;;15.17;13.67;;;27.10;74.50;;;;;;6179845;23;20515;-84
2021/09/13 11:48:04;;;;;;;14.03;12.70;;;27.60;70.90;;;;;;6183207;23;20468;-86
2021/09/13 11:50:38;;;;;;;15.87;13.80;;;27.90;68.60;;;;;;6183490;23;20417;-84
2021/09/13 11:53:13;;;;;;;16.40;14.67;;;27.60;69.30;;;;;;6179783;23;20456;-84
2021/09/13 11:55:40;;;;;;;13.73;11.40;;;27.50;70.90;;;;;;6178879;23;20980;-87
2021/09/13 11:58:13;;;;;;;12.80;10.63;;;27.80;71.60;;;;;;6179556;23;20422;-86
2021/09/13 12:01:57;;;;;;;11.77;10.73;;;27.60;67.80;;;;;;6178246;23;20425;-84
2021/09/13 12:09:44;;;;;;;5.73;5.30;;;27.80;65.70;;;;;;6056785;23;20484;-88
2021/09/13 12:13:19;;;;;;;6.23;5.63;;;28.10;58.20;;;;;;5934203;24;20403;-83
2021/09/13 12:21:15;;;;;;;11.63;10.50;;;28.70;58.00;;;;;;5932254;24;20595;-86
2021/09/13 12:33:02;;;;;;;;;;;;;;;;;;;;;
2021/09/13 12:36:26;;;;;;;;;;;;;;;;;;;;;
2021/09/13 12:40:12;;;;;;;;;;;;;;;;;;;;;
2021/09/13 12:51:36;;;;;;;;;;;;;;;;;;;;;
2021/09/13 12:58:13;;;;;;;8.90;8.17;;;26.40;62.00;;;;;;6181450;23;20442;-86
2021/09/13 13:05:43;;;;;;;;;;;;;;;;;;;;;
2021/09/13 13:09:39;;;;;;;;;;;;;;;;;;;;;
2021/09/13 13:21:15;;;;;;;;;;;;;;;;;;;;;
2021/09/13 13:28:18;;;;;;;;;;;;;;;;;;;;;
2021/09/13 13:32:28;;;;;;;8.43;7.07;;;25.80;64.20;;;;;;5840265;24;20476;-84
2021/09/13 13:40:29;;;;;;;;;;;;;;;;;;;;;
2021/09/13 13:47:45;;;;;;;;;;;;;;;;;;;;;
2021/09/13 13:59:09;;;;;;;;;;;;;;;;;;;;;
2021/09/13 14:05:56;;;;;;;9.13;8.33;;;26.20;64.30;;;;;;6002444;23;20921;-86
2021/09/13 14:08:26;;;;;;;8.90;8.10;;;26.20;63.40;;;;;;6155769;23;20398;-86
2021/09/13 14:10:54;;;;;;;8.50;7.80;;;26.30;62.30;;;;;;6149941;23;20456;-85
2021/09/13 14:13:22;;;;;;;9.30;8.50;;;26.30;61.90;;;;;;6149687;23;20486;-83
2021/09/13 14:15:49;;;;;;;10.27;9.47;;;25.90;63.20;;;;;;6150025;23;20508;-84
2021/09/13 14:18:18;;;;;;;10.30;9.40;;;25.90;64.10;;;;;;6179629;23;20411;-86
2021/09/13 14:20:46;;;;;;;11.37;10.27;;;25.80;64.10;;;;;;6177055;23;20469;-84
2021/09/13 14:23:13;;;;;;;11.00;10.10;;;25.80;64.00;;;;;;6150175;23;20821;-85
2021/09/13 14:25:40;;;;;;;10.80;9.80;;;25.60;64.10;;;;;;6152622;23;20460;-83
2021/09/13 14:28:10;;;;;;;10.77;9.87;;;25.40;65.50;;;;;;6178492;23;20413;-85
2021/09/13 14:30:36;;;;;;;9.97;9.17;;;25.20;66.10;;;;;;6177218;23;20457;-86
2021/09/13 14:33:04;;;;;;;10.67;9.47;;;25.10;66.60;;;;;;6150811;23;20420;-85
2021/09/13 14:35:31;;;;;;;11.07;10.13;;;25.10;67.60;;;;;;6157901;23;20433;-86
2021/09/13 14:37:57;;;;;;;10.73;9.83;;;25.40;66.60;;;;;;6181207;23;20434;-86